createdAt,value
2018-07-10T00:02:18.122Z,3.35
2018-07-10T00:07:04.963Z,3.75
2018-07-10T00:12:07.254Z,3.27
2018-07-10T00:14:36.119Z,2.95
2018-07-10T00:17:04.990Z,3.77
2018-07-10T00:19:34.258Z,3.83
2018-07-10T00:22:03.348Z,5.42
2018-07-10T00:24:32.915Z,4.10
2018-07-10T00:27:02.246Z,4.90
2018-07-10T00:29:31.181Z,4.62
2018-07-10T00:32:00.206Z,4.62
2018-07-10T00:34:29.066Z,3.35
2018-07-10T00:36:58.234Z,3.05
2018-07-10T00:39:27.365Z,2.58
2018-07-10T00:41:56.718Z,2.95
2018-07-10T00:44:26.172Z,3.37
2018-07-10T00:46:55.015Z,3.62
2018-07-10T00:49:24.518Z,3.62
2018-07-10T00:51:53.295Z,3.52
2018-07-10T00:54:22.855Z,2.92
2018-07-10T00:56:51.898Z,2.33
2018-07-10T00:59:20.742Z,3.02
2018-07-10T01:01:49.837Z,3.22
2018-07-10T01:04:19.935Z,1.95
2018-07-10T01:06:49.112Z,2.47
2018-07-10T01:09:18.379Z,2.47
2018-07-10T01:11:48.046Z,2.47
2018-07-10T01:14:16.727Z,2.45
2018-07-10T01:16:46.043Z,3.35
2018-07-10T01:19:16.787Z,2.52
2018-07-10T01:21:46.541Z,1.87
2018-07-10T01:24:18.203Z,1.65
2018-07-10T01:26:48.386Z,2.70
2018-07-10T01:29:22.886Z,3.30
2018-07-10T01:31:53.399Z,3.08
2018-07-10T01:34:23.079Z,3.12
2018-07-10T01:36:53.293Z,3.00
2018-07-10T01:39:22.884Z,2.35
2018-07-10T01:41:51.951Z,3.22
2018-07-10T01:44:21.422Z,3.35
2018-07-10T01:46:50.476Z,3.02
2018-07-10T01:49:19.608Z,4.70
2018-07-10T01:51:49.018Z,5.35
2018-07-10T01:54:18.640Z,5.83
2018-07-10T01:56:47.457Z,5.97
2018-07-10T01:59:17.215Z,5.87
2018-07-10T02:01:46.319Z,6.83
2018-07-10T02:04:15.358Z,6.33
2018-07-10T02:06:44.421Z,6.00
2018-07-10T02:09:13.512Z,7.22
2018-07-10T02:11:42.352Z,6.80
2018-07-10T02:14:11.439Z,6.65
2018-07-10T02:16:40.419Z,7.12
2018-07-10T02:19:09.299Z,6.97
2018-07-10T02:21:38.826Z,7.60
2018-07-10T02:24:07.999Z,5.62
2018-07-10T02:26:37.206Z,5.87
2018-07-10T02:29:06.730Z,5.05
2018-07-10T02:31:35.811Z,4.40
2018-07-10T02:34:04.715Z,4.70
2018-07-10T02:36:34.027Z,3.77
2018-07-10T02:39:03.186Z,3.02
2018-07-10T02:41:31.934Z,2.92
2018-07-10T02:44:04.716Z,3.52
2018-07-10T02:46:35.786Z,2.72
2018-07-10T02:49:10.747Z,2.65
2018-07-10T02:52:00.226Z,3.72
2018-07-10T02:54:31.716Z,3.90
2018-07-10T02:57:00.851Z,3.70
2018-07-10T02:59:38.521Z,4.20
2018-07-10T03:02:24.776Z,4.55
2018-07-10T03:05:02.471Z,5.05
2018-07-10T03:07:31.849Z,3.50
2018-07-10T03:10:02.408Z,4.28
2018-07-10T03:12:35.340Z,4.62
2018-07-10T03:15:09.606Z,4.60
2018-07-10T03:17:38.617Z,4.65
2018-07-10T03:20:08.350Z,4.22
2018-07-10T03:22:37.502Z,4.42
2018-07-10T03:25:07.390Z,5.12
2018-07-10T03:27:36.266Z,7.08
2018-07-10T03:30:06.053Z,7.50
2018-07-10T03:32:35.555Z,12.28
2018-07-10T03:35:04.409Z,10.72
2018-07-10T03:37:33.377Z,27.82
2018-07-10T03:40:02.951Z,24.82
2018-07-10T03:42:32.147Z,23.50
2018-07-10T03:45:00.951Z,18.12
2018-07-10T03:47:30.021Z,11.48
2018-07-10T03:49:59.166Z,7.33
2018-07-10T03:52:33.164Z,6.72
2018-07-10T03:55:08.372Z,5.35
2018-07-10T03:57:37.990Z,4.70
2018-07-10T04:00:09.457Z,6.28
2018-07-10T04:02:42.615Z,7.40
2018-07-10T04:05:11.358Z,5.95
2018-07-10T04:07:40.524Z,7.95
2018-07-10T04:10:10.228Z,7.42
2018-07-10T04:12:39.310Z,6.85
2018-07-10T04:15:09.139Z,7.33
2018-07-10T04:17:46.929Z,7.25
2018-07-10T04:20:17.246Z,7.87
2018-07-10T04:22:52.871Z,7.62
2018-07-10T04:25:26.462Z,9.55
2018-07-10T04:28:02.587Z,9.55
2018-07-10T04:30:41.785Z,9.23
2018-07-10T04:33:11.660Z,8.30
2018-07-10T04:35:40.619Z,9.23
2018-07-10T04:38:09.873Z,9.03
2018-07-10T04:40:39.750Z,8.85
2018-07-10T04:43:12.824Z,10.05
2018-07-10T04:45:43.987Z,8.78
2018-07-10T04:48:35.414Z,8.53
2018-07-10T04:51:44.973Z,9.08
2018-07-10T04:54:22.025Z,7.17
2018-07-10T04:57:14.871Z,8.20
2018-07-10T04:59:44.191Z,8.50
2018-07-10T05:02:14.051Z,8.15
2018-07-10T05:04:43.410Z,8.23
2018-07-10T05:07:12.666Z,7.87
2018-07-10T05:09:43.230Z,7.50
2018-07-10T05:12:12.385Z,8.25
2018-07-10T05:14:44.219Z,10.35
2018-07-10T05:17:15.575Z,8.18
2018-07-10T05:19:44.931Z,7.40
2018-07-10T05:22:13.818Z,8.90
2018-07-10T05:24:43.332Z,7.25
2018-07-10T05:27:12.343Z,8.50
2018-07-10T05:29:41.430Z,7.12
2018-07-10T05:32:11.670Z,8.83
2018-07-10T05:34:41.791Z,8.48
2018-07-10T05:37:13.107Z,10.25
2018-07-10T05:39:43.995Z,9.10
2018-07-10T05:42:13.823Z,9.40
2018-07-10T05:44:43.585Z,7.45
2018-07-10T05:47:12.763Z,9.98
2018-07-10T05:49:42.485Z,7.97
2018-07-10T05:52:13.165Z,9.00
2018-07-10T05:54:43.554Z,7.15
2018-07-10T05:57:13.261Z,6.53
2018-07-10T05:59:42.441Z,8.50
2018-07-10T06:02:11.363Z,7.90
2018-07-10T06:04:40.465Z,10.72
2018-07-10T06:07:09.675Z,8.25
2018-07-10T06:09:38.748Z,8.13
2018-07-10T06:12:08.166Z,7.75
2018-07-10T06:14:37.936Z,9.08
2018-07-10T06:17:07.578Z,8.40
2018-07-10T06:19:36.556Z,9.00
2018-07-10T06:22:05.515Z,12.65
2018-07-10T06:24:34.454Z,13.75
2018-07-10T06:27:05.932Z,12.20
2018-07-10T06:29:51.903Z,14.63
2018-07-10T06:32:22.356Z,19.82
2018-07-10T06:34:57.375Z,16.25
2018-07-10T06:37:31.756Z,13.48
2018-07-10T06:40:02.223Z,13.13
2018-07-10T06:42:45.044Z,10.90
2018-07-10T06:45:14.242Z,10.30
2018-07-10T06:47:47.637Z,8.65
2018-07-10T06:50:18.835Z,7.53
2018-07-10T06:52:49.104Z,5.97
2018-07-10T06:55:19.671Z,6.40
2018-07-10T06:57:56.340Z,6.55
2018-07-10T07:00:25.871Z,6.72
2018-07-10T07:02:55.223Z,7.25
2018-07-10T07:05:24.375Z,6.58
2018-07-10T07:07:53.254Z,7.05
2018-07-10T07:10:22.203Z,5.25
2018-07-10T07:12:51.426Z,7.08
2018-07-10T07:15:21.111Z,7.30
2018-07-10T07:17:52.480Z,8.43
2018-07-10T07:20:22.372Z,9.05
2018-07-10T07:22:51.569Z,8.30
2018-07-10T07:25:21.097Z,6.92
2018-07-10T07:27:50.103Z,8.43
2018-07-10T07:30:19.416Z,8.03
2018-07-10T07:32:49.403Z,7.80
2018-07-10T07:35:18.364Z,8.13
2018-07-10T07:37:47.575Z,7.50
2018-07-10T07:40:16.984Z,7.10
2018-07-10T07:42:46.098Z,6.87
2018-07-10T07:45:14.924Z,5.90
2018-07-10T07:47:44.613Z,5.90
2018-07-10T07:50:13.643Z,5.50
2018-07-10T07:52:42.707Z,6.97
2018-07-10T07:55:11.781Z,6.30
2018-07-10T07:57:40.980Z,6.78
2018-07-10T08:00:10.500Z,6.03
2018-07-10T08:02:40.025Z,6.42
2018-07-10T08:05:09.295Z,6.17
2018-07-10T08:07:38.597Z,6.08
2018-07-10T08:10:08.162Z,6.92
2018-07-10T08:12:38.731Z,6.92
2018-07-10T08:15:08.227Z,6.90
2018-07-10T08:17:37.767Z,8.28
2018-07-10T08:20:07.619Z,9.50
2018-07-10T08:22:36.967Z,10.38
2018-07-10T08:25:06.926Z,9.45
2018-07-10T08:27:38.234Z,10.32
2018-07-10T08:30:08.170Z,10.93
2018-07-10T08:32:38.175Z,10.03
2018-07-10T08:35:07.689Z,8.88
2018-07-10T08:37:36.882Z,9.08
2018-07-10T08:40:06.191Z,8.08
2018-07-10T08:42:35.588Z,7.90
2018-07-10T08:45:05.524Z,8.65
2018-07-10T08:47:35.133Z,7.80
2018-07-10T08:50:04.739Z,8.65
2018-07-10T08:52:34.016Z,8.65
2018-07-10T08:55:03.234Z,9.20
2018-07-10T08:57:32.535Z,7.08
2018-07-10T09:00:02.039Z,6.58
2018-07-10T09:02:31.344Z,5.83
2018-07-10T09:05:00.839Z,7.50
2018-07-10T09:07:30.023Z,8.60
2018-07-10T09:09:59.211Z,10.00
2018-07-10T09:12:28.798Z,10.85
2018-07-10T09:14:57.943Z,9.68
2018-07-10T09:17:28.198Z,11.05
2018-07-10T09:19:59.256Z,11.03
2018-07-10T09:22:28.683Z,10.78
2018-07-10T09:24:58.564Z,11.18
2018-07-10T09:27:28.095Z,10.80
2018-07-10T09:29:57.237Z,8.30
2018-07-10T09:32:31.759Z,8.28
2018-07-10T09:35:00.939Z,6.97
2018-07-10T09:37:36.869Z,7.20
2018-07-10T09:40:11.144Z,7.75
2018-07-10T09:42:47.477Z,9.08
2018-07-10T09:45:16.639Z,9.53
2018-07-10T09:47:45.856Z,7.40
2018-07-10T09:50:15.277Z,7.67
2018-07-10T09:52:44.422Z,7.15
2018-07-10T09:55:13.756Z,7.15
2018-07-10T09:57:44.658Z,6.28
2018-07-10T10:00:13.922Z,5.90
2018-07-10T10:02:43.102Z,4.12
2018-07-10T10:05:12.636Z,4.50
2018-07-10T10:07:41.819Z,4.47
2018-07-10T10:10:10.913Z,3.83
2018-07-10T10:12:40.164Z,4.83
2018-07-10T10:15:09.441Z,4.30
2018-07-10T10:17:38.610Z,7.12
2018-07-10T10:20:07.684Z,8.10
2018-07-10T10:22:37.994Z,8.98
2018-07-10T10:25:07.111Z,10.48
2018-07-10T10:27:36.622Z,9.70
2018-07-10T10:30:09.095Z,10.78
2018-07-10T10:32:38.832Z,9.68
2018-07-10T10:35:08.097Z,10.05
2018-07-10T10:37:37.267Z,8.93
2018-07-10T10:40:06.729Z,8.48
2018-07-10T10:42:35.927Z,8.95
2018-07-10T10:45:05.157Z,9.78
2018-07-10T10:47:35.187Z,8.20
2018-07-10T10:50:04.328Z,10.18
2018-07-10T10:52:33.660Z,10.48
2018-07-10T10:55:03.422Z,11.22
2018-07-10T10:57:37.976Z,9.65
2018-07-10T11:00:07.778Z,10.00
2018-07-10T11:02:37.261Z,9.60
2018-07-10T11:05:16.431Z,10.15
2018-07-10T11:07:45.589Z,9.58
2018-07-10T11:10:14.757Z,9.65
2018-07-10T11:12:44.290Z,8.60
2018-07-10T11:15:13.463Z,9.20
2018-07-10T11:18:25.280Z,9.20
2018-07-10T11:20:56.963Z,8.55
2018-07-10T11:23:38.985Z,7.58
2018-07-10T11:26:13.104Z,9.18
2018-07-10T11:28:42.382Z,7.85
2018-07-10T11:31:11.593Z,7.33
2018-07-10T11:33:40.981Z,7.40
2018-07-10T11:36:10.641Z,8.20
2018-07-10T11:38:39.855Z,9.38
2018-07-10T11:41:09.067Z,10.00
2018-07-10T11:43:40.316Z,8.75
2018-07-10T11:46:09.471Z,9.98
2018-07-10T11:48:38.698Z,10.23
2018-07-10T11:51:08.130Z,9.95
2018-07-10T11:53:37.732Z,11.00
2018-07-10T11:56:06.707Z,9.35
2018-07-10T11:58:35.779Z,11.33
2018-07-10T12:01:04.925Z,10.08
2018-07-10T12:03:42.556Z,10.70
2018-07-10T12:06:12.011Z,10.58
2018-07-10T12:08:41.361Z,10.48
2018-07-10T12:11:17.007Z,8.33
2018-07-10T12:13:46.370Z,8.15
2018-07-10T12:16:15.694Z,10.13
2018-07-10T12:18:45.040Z,8.60
2018-07-10T12:21:16.907Z,9.43
2018-07-10T12:23:46.686Z,8.08
2018-07-10T12:26:15.975Z,9.25
2018-07-10T12:28:45.266Z,9.50
2018-07-10T12:31:14.826Z,8.33
2018-07-10T12:33:44.047Z,8.33
2018-07-10T12:36:12.730Z,7.95
2018-07-10T12:38:42.222Z,7.50
2018-07-10T12:41:11.152Z,5.40
2018-07-10T12:43:39.961Z,5.08
2018-07-10T12:46:09.435Z,5.33
2018-07-10T12:48:39.664Z,3.72
2018-07-10T12:51:08.782Z,3.67
2018-07-10T12:53:38.590Z,5.45
2018-07-10T12:56:07.812Z,4.83
2018-07-10T12:59:42.928Z,5.15
2018-07-10T13:02:11.890Z,5.67
2018-07-10T13:04:41.150Z,5.00
2018-07-10T13:07:10.783Z,5.03
2018-07-10T13:09:39.995Z,5.40
2018-07-10T13:12:09.241Z,5.35
2018-07-10T13:14:38.978Z,5.15
2018-07-10T13:17:08.033Z,6.58
2018-07-10T13:19:39.074Z,6.12
2018-07-10T13:22:08.681Z,5.10
2018-07-10T13:24:37.773Z,5.83
2018-07-10T13:27:06.981Z,5.30
2018-07-10T13:29:36.220Z,5.70
2018-07-10T13:32:05.186Z,5.25
2018-07-10T13:34:34.379Z,4.90
2018-07-10T13:37:03.571Z,4.10
2018-07-10T13:39:32.774Z,4.25
2018-07-10T13:42:01.641Z,5.08
2018-07-10T13:44:31.034Z,5.25
2018-07-10T13:46:59.807Z,4.42
2018-07-10T13:49:28.945Z,4.20
2018-07-10T13:51:58.576Z,4.00
2018-07-10T13:54:27.859Z,4.53
2018-07-10T13:56:56.886Z,3.98
2018-07-10T13:59:27.489Z,4.22
2018-07-10T14:01:57.175Z,4.67
2018-07-10T14:04:26.779Z,2.87
2018-07-10T14:06:55.687Z,3.37
2018-07-10T14:09:24.873Z,3.30
2018-07-10T14:11:54.681Z,3.10
2018-07-10T14:14:24.313Z,3.35
2018-07-10T14:16:53.283Z,4.10
2018-07-10T14:19:22.277Z,4.25
2018-07-10T14:21:51.899Z,5.37
2018-07-10T14:24:20.851Z,6.55
2018-07-10T14:26:49.775Z,5.92
2018-07-10T14:29:19.694Z,5.47
2018-07-10T14:31:48.882Z,6.37
2018-07-10T14:34:17.829Z,6.03
2018-07-10T14:36:47.237Z,6.72
2018-07-10T14:39:16.880Z,7.42
2018-07-10T14:41:45.899Z,7.60
2018-07-10T14:44:15.525Z,7.70
2018-07-10T14:46:44.539Z,8.08
2018-07-10T14:49:13.608Z,9.55
2018-07-10T14:51:46.310Z,9.58
2018-07-10T14:54:15.621Z,9.85
2018-07-10T14:56:44.885Z,11.03
2018-07-10T14:59:14.591Z,10.88
2018-07-10T15:01:43.891Z,11.28
2018-07-10T15:04:13.013Z,11.73
2018-07-10T15:06:42.211Z,14.40
2018-07-10T15:09:11.298Z,13.95
2018-07-10T15:11:41.557Z,14.43
2018-07-10T15:14:11.779Z,14.20
2018-07-10T15:16:45.950Z,14.80
2018-07-10T15:19:17.345Z,14.65
2018-07-10T15:21:46.214Z,16.77
2018-07-10T15:24:15.599Z,15.60
2018-07-10T15:26:44.709Z,15.93
2018-07-10T15:29:17.753Z,17.23
2018-07-10T15:31:46.898Z,16.32
2018-07-10T15:34:16.169Z,18.48
2018-07-10T15:36:45.346Z,17.20
2018-07-10T15:39:15.013Z,18.67
2018-07-10T15:41:44.169Z,18.23
2018-07-10T15:44:13.893Z,19.62
2018-07-10T15:46:43.232Z,22.20
2018-07-10T15:49:12.286Z,19.50
2018-07-10T15:51:42.315Z,19.65
2018-07-10T15:54:11.863Z,20.80
2018-07-10T15:56:41.845Z,19.85
2018-07-10T15:59:10.822Z,19.80
2018-07-10T16:01:39.924Z,19.02
2018-07-10T16:04:09.846Z,17.70
2018-07-10T16:06:39.034Z,17.42
2018-07-10T16:09:16.972Z,19.07
2018-07-10T16:11:46.446Z,17.70
2018-07-10T16:14:15.541Z,17.02
2018-07-10T16:16:46.914Z,15.53
2018-07-10T16:19:18.544Z,14.75
2018-07-10T16:21:54.885Z,13.50
2018-07-10T16:24:24.028Z,15.08
2018-07-10T16:26:54.263Z,15.63
2018-07-10T16:29:25.091Z,15.40
2018-07-10T16:31:54.434Z,14.73
2018-07-10T16:34:23.666Z,16.45
2018-07-10T16:36:53.090Z,15.38
2018-07-10T16:39:22.038Z,15.08
2018-07-10T16:41:56.618Z,14.55
2018-07-10T16:44:25.851Z,15.50
2018-07-10T16:47:19.580Z,13.88
2018-07-10T16:49:48.779Z,14.13
2018-07-10T16:52:36.004Z,14.30
2018-07-10T16:55:05.112Z,13.78
2018-07-10T16:57:34.318Z,13.65
2018-07-10T17:00:03.624Z,15.03
2018-07-10T17:02:32.483Z,14.75
2018-07-10T17:05:01.662Z,15.50
2018-07-10T17:07:30.778Z,14.87
2018-07-10T17:09:59.720Z,15.25
2018-07-10T17:12:28.817Z,15.83
2018-07-10T17:14:59.464Z,15.63
2018-07-10T17:17:28.542Z,14.98
2018-07-10T17:19:57.727Z,16.12
2018-07-10T17:22:27.282Z,16.25
2018-07-10T17:24:56.875Z,16.60
2018-07-10T17:27:34.851Z,17.25
2018-07-10T17:30:04.907Z,18.80
2018-07-10T17:32:35.350Z,18.85
2018-07-10T17:35:05.037Z,18.42
2018-07-10T17:37:40.669Z,18.55
2018-07-10T17:40:09.679Z,20.25
2018-07-10T17:42:39.266Z,20.57
2018-07-10T17:45:11.589Z,20.23
2018-07-10T17:47:40.554Z,20.70
2018-07-10T17:50:09.836Z,20.85
2018-07-10T17:52:38.950Z,21.50
2018-07-10T17:55:07.937Z,20.95
2018-07-10T17:57:36.921Z,22.00
2018-07-10T18:00:06.327Z,21.25
2018-07-10T18:02:35.526Z,20.72
2018-07-10T18:05:04.570Z,20.45
2018-07-10T18:07:33.748Z,22.07
2018-07-10T18:10:02.925Z,22.10
2018-07-10T18:12:32.016Z,22.73
2018-07-10T18:15:01.568Z,20.95
2018-07-10T18:17:30.567Z,23.50
2018-07-10T18:19:59.593Z,23.80
2018-07-10T18:22:29.036Z,23.55
2018-07-10T18:24:58.215Z,21.77
2018-07-10T18:27:27.051Z,24.02
2018-07-10T18:29:57.208Z,23.10
2018-07-10T18:32:26.190Z,22.45
2018-07-10T18:34:55.115Z,23.40
2018-07-10T18:37:24.039Z,22.45
2018-07-10T18:39:53.292Z,22.27
2018-07-10T18:42:22.396Z,23.45
2018-07-10T18:44:51.727Z,24.02
2018-07-10T18:47:21.075Z,23.45
2018-07-10T18:49:53.738Z,22.35
2018-07-10T18:52:27.892Z,22.37
2018-07-10T18:54:58.743Z,21.75
2018-07-10T18:57:44.423Z,21.48
2018-07-10T19:00:13.860Z,21.75
2018-07-10T19:03:06.715Z,21.57
2018-07-10T19:05:44.562Z,20.95
2018-07-10T19:08:13.496Z,22.07
2018-07-10T19:10:44.855Z,22.25
2018-07-10T19:13:15.336Z,21.70
2018-07-10T19:15:45.478Z,22.42
2018-07-10T19:18:15.508Z,23.02
2018-07-10T19:20:59.787Z,20.40
2018-07-10T19:23:49.942Z,21.55
2018-07-10T19:26:24.118Z,21.37
2018-07-10T19:28:58.619Z,20.92
2018-07-10T19:31:31.744Z,18.82
2018-07-10T19:34:01.576Z,20.37
2018-07-10T19:36:30.481Z,19.37
2018-07-10T19:39:00.738Z,18.50
2018-07-10T19:41:30.338Z,17.65
2018-07-10T19:43:59.367Z,18.42
2018-07-10T19:46:28.985Z,17.87
2018-07-10T19:48:58.505Z,16.45
2018-07-10T19:51:29.175Z,16.55
2018-07-10T19:54:07.178Z,17.87
2018-07-10T19:56:36.736Z,16.75
2018-07-10T19:59:06.891Z,16.50
2018-07-10T20:01:53.055Z,14.70
2018-07-10T20:04:42.071Z,18.35
2018-07-10T20:07:15.897Z,16.15
2018-07-10T20:09:48.776Z,16.75
2018-07-10T20:12:20.112Z,15.23
2018-07-10T20:14:57.998Z,15.95
2018-07-10T20:17:29.447Z,15.50
2018-07-10T20:20:10.551Z,17.12
2018-07-10T20:22:48.999Z,14.35
2018-07-10T20:25:35.223Z,15.00
2018-07-10T20:28:41.954Z,13.35
2018-07-10T20:31:14.603Z,14.25
2018-07-10T20:33:52.587Z,14.93
2018-07-10T20:36:23.366Z,13.60
2018-07-10T20:38:54.103Z,13.85
2018-07-10T20:41:26.727Z,13.45
2018-07-10T20:43:55.773Z,13.13
2018-07-10T20:46:26.679Z,13.60
2018-07-10T20:48:58.617Z,12.53
2018-07-10T20:51:33.706Z,12.28
2018-07-10T20:54:28.352Z,12.07
2018-07-10T20:57:04.500Z,11.15
2018-07-10T20:59:44.499Z,12.03
2018-07-10T21:02:24.382Z,11.33
2018-07-10T21:05:10.345Z,11.22
2018-07-10T21:08:00.789Z,11.10
2018-07-10T21:10:49.943Z,11.73
2018-07-10T21:13:32.392Z,10.03
2018-07-10T21:16:10.585Z,11.45
2018-07-10T21:18:56.219Z,11.95
2018-07-10T21:21:40.903Z,11.38
2018-07-10T21:24:22.771Z,10.75
2018-07-10T21:27:00.299Z,10.38
2018-07-10T21:31:07.102Z,10.28
2018-07-10T21:33:44.780Z,9.65
2018-07-10T21:36:22.380Z,10.25
2018-07-10T21:39:02.148Z,10.43
2018-07-10T21:41:46.644Z,8.80
2018-07-10T21:44:38.623Z,9.95
2018-07-10T21:47:17.486Z,10.80
2018-07-10T21:49:54.329Z,11.22
2018-07-10T21:52:23.839Z,12.00
2018-07-10T21:54:52.967Z,12.20
2018-07-10T21:57:28.607Z,12.13
2018-07-10T21:59:58.164Z,11.88
2018-07-10T22:02:27.215Z,12.75
2018-07-10T22:04:58.378Z,13.32
2018-07-10T22:07:28.627Z,12.85
2018-07-10T22:10:07.016Z,13.32
2018-07-10T22:12:44.349Z,11.85
2018-07-10T22:15:13.983Z,12.33
2018-07-10T22:17:44.001Z,12.47
2018-07-10T22:20:13.271Z,11.57
2018-07-10T22:22:42.683Z,11.68
2018-07-10T22:25:11.752Z,10.82
2018-07-10T22:27:42.780Z,10.75
2018-07-10T22:30:19.422Z,10.05
2018-07-10T22:32:54.155Z,10.85
2018-07-10T22:35:24.230Z,11.12
2018-07-10T22:37:53.507Z,11.45
2018-07-10T22:40:22.467Z,9.90
2018-07-10T22:42:51.456Z,10.90
2018-07-10T22:45:20.780Z,10.38
2018-07-10T22:47:50.643Z,10.08
2018-07-10T22:50:22.808Z,10.48
2018-07-10T22:52:53.836Z,10.45
2018-07-10T22:55:25.444Z,10.65
2018-07-10T22:57:55.799Z,11.08
2018-07-10T23:00:30.791Z,10.65
2018-07-10T23:03:00.827Z,11.08
2018-07-10T23:05:29.902Z,10.82
2018-07-10T23:07:59.367Z,11.88
2018-07-10T23:10:28.900Z,11.83
2018-07-10T23:12:58.000Z,12.43
2018-07-10T23:15:27.819Z,13.22
2018-07-10T23:17:56.858Z,12.90
2018-07-10T23:20:25.906Z,12.63
2018-07-10T23:22:56.936Z,14.45
2018-07-10T23:25:27.259Z,14.53
2018-07-10T23:28:04.171Z,13.78
2018-07-10T23:30:37.133Z,14.00
2018-07-10T23:33:08.250Z,14.83
2018-07-10T23:35:38.530Z,15.60
2018-07-10T23:38:19.567Z,16.07
2018-07-10T23:40:48.743Z,15.63
2018-07-10T23:43:17.783Z,15.83
2018-07-10T23:45:47.214Z,16.37
2018-07-10T23:48:16.311Z,17.37
2018-07-10T23:50:45.806Z,18.50
2018-07-10T23:53:52.465Z,17.87
2018-07-10T23:56:21.767Z,18.25
2018-07-10T23:58:51.025Z,18.87
